Terminal Aerodrome Forecast
Issued by NWS

Home | Current Version | Previous Version | Text Only | Print | Product List | Glossary Off
Versions: 1 2 3 4 5 6 7 8 9 10 11 12 13 14 15 16 17 18 19 20 21

000
FTUS43 KICT 280520
TAFHUT
TAF
KHUT 280520Z 2806/2906 15010KT P6SM VCTS BKN035CB
      TEMPO 2806/2808 2SM -TSRA
     FM280800 15008KT 6SM -TSRA BKN035CB
     FM281200 15010KT P6SM BKN050
     FM281500 18015G22KT P6SM BKN120
     FM290300 18010KT P6SM BKN025=

USA.gov is the U.S. government's official web portal to all federal, state and local government web resources and services.